sensor_id;sensor_type;location;lat;lon;timestamp;P1;durP1;ratioP1;P2;durP2;ratioP2
44704;SDS011;30431;48.520;9.046;2023-01-08T00:01:47;21.80;;;13.90;;
44704;SDS011;30431;48.520;9.046;2023-01-08T00:04:17;72.07;;;42.30;;
44704;SDS011;30431;48.520;9.046;2023-01-08T00:06:44;29.13;;;19.92;;
44704;SDS011;30431;48.520;9.046;2023-01-08T00:09:14;23.40;;;15.13;;
44704;SDS011;30431;48.520;9.046;2023-01-08T00:11:41;22.92;;;15.07;;
44704;SDS011;30431;48.520;9.046;2023-01-08T00:14:10;19.88;;;13.18;;
44704;SDS011;30431;48.520;9.046;2023-01-08T00:16:37;22.02;;;14.25;;
44704;SDS011;30431;48.520;9.046;2023-01-08T00:19:04;18.38;;;12.93;;
44704;SDS011;30431;48.520;9.046;2023-01-08T00:21:33;20.40;;;14.27;;
44704;SDS011;30431;48.520;9.046;2023-01-08T00:24:03;21.38;;;13.90;;
44704;SDS011;30431;48.520;9.046;2023-01-08T00:26:35;21.27;;;13.70;;
44704;SDS011;30431;48.520;9.046;2023-01-08T00:29:05;21.42;;;13.98;;
44704;SDS011;30431;48.520;9.046;2023-01-08T00:31:32;20.38;;;14.00;;
44704;SDS011;30431;48.520;9.046;2023-01-08T00:34:02;22.02;;;13.40;;
44704;SDS011;30431;48.520;9.046;2023-01-08T00:36:29;24.38;;;14.73;;
44704;SDS011;30431;48.520;9.046;2023-01-08T00:38:57;22.35;;;13.55;;
44704;SDS011;30431;48.520;9.046;2023-01-08T00:41:25;23.13;;;13.30;;
44704;SDS011;30431;48.520;9.046;2023-01-08T00:43:54;19.08;;;12.52;;
44704;SDS011;30431;48.520;9.046;2023-01-08T00:46:21;20.65;;;13.48;;
44704;SDS011;30431;48.520;9.046;2023-01-08T00:48:48;16.90;;;11.23;;
44704;SDS011;30431;48.520;9.046;2023-01-08T00:51:15;21.85;;;12.75;;
44704;SDS011;30431;48.520;9.046;2023-01-08T00:53:42;19.80;;;13.10;;
44704;SDS011;30431;48.520;9.046;2023-01-08T00:56:12;25.88;;;14.20;;
44704;SDS011;30431;48.520;9.046;2023-01-08T00:58:43;21.83;;;13.15;;
44704;SDS011;30431;48.520;9.046;2023-01-08T01:01:11;20.52;;;13.07;;
44704;SDS011;30431;48.520;9.046;2023-01-08T01:03:42;23.52;;;13.23;;
44704;SDS011;30431;48.520;9.046;2023-01-08T01:08:37;18.25;;;11.60;;
44704;SDS011;30431;48.520;9.046;2023-01-08T01:13:37;20.27;;;11.10;;
44704;SDS011;30431;48.520;9.046;2023-01-08T01:16:07;15.90;;;11.30;;
44704;SDS011;30431;48.520;9.046;2023-01-08T01:18:34;16.40;;;11.48;;
44704;SDS011;30431;48.520;9.046;2023-01-08T01:21:01;16.33;;;11.55;;
44704;SDS011;30431;48.520;9.046;2023-01-08T01:23:28;18.67;;;12.77;;
44704;SDS011;30431;48.520;9.046;2023-01-08T01:25:57;17.17;;;12.10;;
44704;SDS011;30431;48.520;9.046;2023-01-08T01:28:24;16.95;;;12.30;;
44704;SDS011;30431;48.520;9.046;2023-01-08T01:30:54;18.00;;;12.55;;
44704;SDS011;30431;48.520;9.046;2023-01-08T01:33:22;16.75;;;12.23;;
44704;SDS011;30431;48.520;9.046;2023-01-08T01:35:57;19.23;;;13.65;;
44704;SDS011;30431;48.520;9.046;2023-01-08T01:38:25;19.52;;;12.30;;
44704;SDS011;30431;48.520;9.046;2023-01-08T01:40:52;16.23;;;12.00;;
44704;SDS011;30431;48.520;9.046;2023-01-08T01:43:34;18.05;;;12.02;;
44704;SDS011;30431;48.520;9.046;2023-01-08T01:46:17;18.83;;;11.77;;
44704;SDS011;30431;48.520;9.046;2023-01-08T01:49:07;16.77;;;11.88;;
44704;SDS011;30431;48.520;9.046;2023-01-08T01:51:37;17.83;;;12.07;;
44704;SDS011;30431;48.520;9.046;2023-01-08T01:54:12;18.02;;;12.38;;
44704;SDS011;30431;48.520;9.046;2023-01-08T01:56:40;17.52;;;12.25;;
44704;SDS011;30431;48.520;9.046;2023-01-08T01:59:11;18.27;;;11.30;;
44704;SDS011;30431;48.520;9.046;2023-01-08T02:01:41;18.27;;;12.43;;
44704;SDS011;30431;48.520;9.046;2023-01-08T02:04:11;19.15;;;12.85;;
44704;SDS011;30431;48.520;9.046;2023-01-08T02:12:08;18.85;;;12.80;;
44704;SDS011;30431;48.520;9.046;2023-01-08T02:20:42;16.15;;;12.27;;
44704;SDS011;30431;48.520;9.046;2023-01-08T02:23:36;19.80;;;12.27;;
44704;SDS011;30431;48.520;9.046;2023-01-08T02:28:58;16.05;;;10.98;;
44704;SDS011;30431;48.520;9.046;2023-01-08T02:31:29;14.63;;;9.27;;
44704;SDS011;30431;48.520;9.046;2023-01-08T02:33:58;12.18;;;8.68;;
44704;SDS011;30431;48.520;9.046;2023-01-08T02:36:32;12.98;;;8.32;;
44704;SDS011;30431;48.520;9.046;2023-01-08T02:55:27;13.35;;;8.45;;
44704;SDS011;30431;48.520;9.046;2023-01-08T02:57:57;11.65;;;7.82;;
44704;SDS011;30431;48.520;9.046;2023-01-08T03:00:24;13.18;;;7.57;;
44704;SDS011;30431;48.520;9.046;2023-01-08T03:03:29;11.15;;;7.70;;
44704;SDS011;30431;48.520;9.046;2023-01-08T03:05:57;10.20;;;7.28;;
44704;SDS011;30431;48.520;9.046;2023-01-08T03:08:32;11.73;;;7.75;;
44704;SDS011;30431;48.520;9.046;2023-01-08T03:16:12;13.35;;;8.05;;
44704;SDS011;30431;48.520;9.046;2023-01-08T03:18:48;14.73;;;8.70;;
44704;SDS011;30431;48.520;9.046;2023-01-08T03:21:22;9.88;;;7.47;;
44704;SDS011;30431;48.520;9.046;2023-01-08T03:23:50;11.88;;;7.78;;
44704;SDS011;30431;48.520;9.046;2023-01-08T03:26:21;11.90;;;8.30;;
44704;SDS011;30431;48.520;9.046;2023-01-08T03:28:52;12.35;;;8.57;;
44704;SDS011;30431;48.520;9.046;2023-01-08T03:31:24;11.20;;;8.05;;
44704;SDS011;30431;48.520;9.046;2023-01-08T03:33:53;14.35;;;9.60;;
44704;SDS011;30431;48.520;9.046;2023-01-08T03:36:25;13.45;;;9.13;;
44704;SDS011;30431;48.520;9.046;2023-01-08T03:39:13;15.48;;;10.18;;
44704;SDS011;30431;48.520;9.046;2023-01-08T03:41:44;14.25;;;10.50;;
44704;SDS011;30431;48.520;9.046;2023-01-08T03:44:14;17.90;;;10.18;;
44704;SDS011;30431;48.520;9.046;2023-01-08T03:46:46;17.60;;;10.98;;
44704;SDS011;30431;48.520;9.046;2023-01-08T03:49:19;17.77;;;11.07;;
44704;SDS011;30431;48.520;9.046;2023-01-08T03:51:51;17.88;;;10.90;;
44704;SDS011;30431;48.520;9.046;2023-01-08T03:54:19;26.38;;;11.63;;
44704;SDS011;30431;48.520;9.046;2023-01-08T03:56:52;16.67;;;11.00;;
44704;SDS011;30431;48.520;9.046;2023-01-08T03:59:22;16.75;;;11.98;;
44704;SDS011;30431;48.520;9.046;2023-01-08T04:01:49;19.13;;;10.75;;
44704;SDS011;30431;48.520;9.046;2023-01-08T04:04:18;14.52;;;10.60;;
44704;SDS011;30431;48.520;9.046;2023-01-08T04:06:45;15.63;;;10.93;;
44704;SDS011;30431;48.520;9.046;2023-01-08T04:09:12;14.88;;;10.90;;
44704;SDS011;30431;48.520;9.046;2023-01-08T04:14:09;14.52;;;9.95;;
44704;SDS011;30431;48.520;9.046;2023-01-08T04:16:39;13.80;;;9.93;;
44704;SDS011;30431;48.520;9.046;2023-01-08T04:19:12;15.40;;;10.07;;
44704;SDS011;30431;48.520;9.046;2023-01-08T04:21:39;18.80;;;10.75;;
44704;SDS011;30431;48.520;9.046;2023-01-08T04:24:09;16.85;;;10.60;;
44704;SDS011;30431;48.520;9.046;2023-01-08T04:26:37;16.33;;;11.45;;
44704;SDS011;30431;48.520;9.046;2023-01-08T04:29:07;15.10;;;10.52;;
44704;SDS011;30431;48.520;9.046;2023-01-08T04:31:36;17.40;;;10.25;;
44704;SDS011;30431;48.520;9.046;2023-01-08T04:34:03;14.55;;;10.68;;
44704;SDS011;30431;48.520;9.046;2023-01-08T04:36:35;17.63;;;10.77;;
44704;SDS011;30431;48.520;9.046;2023-01-08T04:41:34;14.60;;;10.45;;
44704;SDS011;30431;48.520;9.046;2023-01-08T04:44:02;16.83;;;11.23;;
44704;SDS011;30431;48.520;9.046;2023-01-08T04:46:29;16.83;;;11.32;;
44704;SDS011;30431;48.520;9.046;2023-01-08T04:48:56;17.73;;;11.23;;
44704;SDS011;30431;48.520;9.046;2023-01-08T04:51:28;21.02;;;12.02;;
44704;SDS011;30431;48.520;9.046;2023-01-08T04:54:00;15.90;;;11.27;;
44704;SDS011;30431;48.520;9.046;2023-01-08T04:56:27;14.98;;;10.75;;
44704;SDS011;30431;48.520;9.046;2023-01-08T04:58:54;16.70;;;11.07;;
44704;SDS011;30431;48.520;9.046;2023-01-08T05:01:21;15.40;;;10.90;;
44704;SDS011;30431;48.520;9.046;2023-01-08T05:03:56;14.75;;;10.30;;
44704;SDS011;30431;48.520;9.046;2023-01-08T05:06:25;13.23;;;9.73;;
44704;SDS011;30431;48.520;9.046;2023-01-08T05:08:54;13.98;;;10.40;;
44704;SDS011;30431;48.520;9.046;2023-01-08T05:13:49;15.07;;;10.65;;
44704;SDS011;30431;48.520;9.046;2023-01-08T05:16:19;15.85;;;10.40;;
44704;SDS011;30431;48.520;9.046;2023-01-08T05:18:47;15.15;;;10.95;;
44704;SDS011;30431;48.520;9.046;2023-01-08T05:21:14;15.98;;;11.02;;
44704;SDS011;30431;48.520;9.046;2023-01-08T05:23:43;13.32;;;10.40;;
44704;SDS011;30431;48.520;9.046;2023-01-08T05:26:15;15.05;;;10.25;;
44704;SDS011;30431;48.520;9.046;2023-01-08T05:28:44;14.93;;;10.93;;
44704;SDS011;30431;48.520;9.046;2023-01-08T05:31:15;15.98;;;10.68;;
44704;SDS011;30431;48.520;9.046;2023-01-08T05:33:42;15.43;;;10.02;;
44704;SDS011;30431;48.520;9.046;2023-01-08T05:36:14;12.50;;;9.10;;
44704;SDS011;30431;48.520;9.046;2023-01-08T05:38:43;13.60;;;8.90;;
44704;SDS011;30431;48.520;9.046;2023-01-08T05:41:10;12.35;;;8.10;;
44704;SDS011;30431;48.520;9.046;2023-01-08T05:43:38;13.93;;;8.13;;
44704;SDS011;30431;48.520;9.046;2023-01-08T05:46:07;13.25;;;8.68;;
44704;SDS011;30431;48.520;9.046;2023-01-08T05:48:34;17.25;;;9.13;;
44704;SDS011;30431;48.520;9.046;2023-01-08T05:51:06;13.65;;;9.68;;
44704;SDS011;30431;48.520;9.046;2023-01-08T05:53:34;14.43;;;10.15;;
44704;SDS011;30431;48.520;9.046;2023-01-08T05:56:05;13.07;;;9.55;;
44704;SDS011;30431;48.520;9.046;2023-01-08T05:58:34;14.32;;;9.15;;
44704;SDS011;30431;48.520;9.046;2023-01-08T06:01:03;12.27;;;9.70;;
44704;SDS011;30431;48.520;9.046;2023-01-08T06:03:32;12.98;;;9.27;;
44704;SDS011;30431;48.520;9.046;2023-01-08T06:06:00;13.30;;;9.82;;
44704;SDS011;30431;48.520;9.046;2023-01-08T06:08:28;13.63;;;9.60;;
44704;SDS011;30431;48.520;9.046;2023-01-08T06:11:05;13.75;;;9.95;;
44704;SDS011;30431;48.520;9.046;2023-01-08T06:13:35;15.15;;;10.20;;
44704;SDS011;30431;48.520;9.046;2023-01-08T06:16:05;13.23;;;10.13;;
44704;SDS011;30431;48.520;9.046;2023-01-08T06:18:33;15.45;;;10.25;;
44704;SDS011;30431;48.520;9.046;2023-01-08T06:21:02;14.52;;;10.27;;
44704;SDS011;30431;48.520;9.046;2023-01-08T06:23:33;11.23;;;9.38;;
44704;SDS011;30431;48.520;9.046;2023-01-08T06:26:02;15.15;;;9.95;;
44704;SDS011;30431;48.520;9.046;2023-01-08T06:31:02;14.20;;;9.43;;
44704;SDS011;30431;48.520;9.046;2023-01-08T06:33:31;11.10;;;8.55;;
44704;SDS011;30431;48.520;9.046;2023-01-08T06:36:02;14.00;;;9.48;;
44704;SDS011;30431;48.520;9.046;2023-01-08T06:38:33;12.63;;;8.50;;
44704;SDS011;30431;48.520;9.046;2023-01-08T06:41:04;12.13;;;8.98;;
44704;SDS011;30431;48.520;9.046;2023-01-08T06:43:36;12.98;;;9.10;;
44704;SDS011;30431;48.520;9.046;2023-01-08T06:46:06;15.85;;;9.63;;
44704;SDS011;30431;48.520;9.046;2023-01-08T06:48:34;13.60;;;9.25;;
44704;SDS011;30431;48.520;9.046;2023-01-08T06:51:04;12.13;;;8.88;;
44704;SDS011;30431;48.520;9.046;2023-01-08T06:53:34;12.73;;;8.98;;
44704;SDS011;30431;48.520;9.046;2023-01-08T06:56:05;14.05;;;9.07;;
44704;SDS011;30431;48.520;9.046;2023-01-08T06:58:36;12.20;;;8.88;;
44704;SDS011;30431;48.520;9.046;2023-01-08T07:01:04;12.05;;;8.73;;
44704;SDS011;30431;48.520;9.046;2023-01-08T07:03:40;13.93;;;8.68;;
44704;SDS011;30431;48.520;9.046;2023-01-08T07:06:12;12.75;;;8.60;;
44704;SDS011;30431;48.520;9.046;2023-01-08T07:08:49;10.73;;;8.55;;
44704;SDS011;30431;48.520;9.046;2023-01-08T07:11:16;13.48;;;9.15;;
44704;SDS011;30431;48.520;9.046;2023-01-08T07:13:43;13.00;;;8.70;;
44704;SDS011;30431;48.520;9.046;2023-01-08T07:16:17;13.75;;;9.20;;
44704;SDS011;30431;48.520;9.046;2023-01-08T07:18:49;11.35;;;8.32;;
44704;SDS011;30431;48.520;9.046;2023-01-08T07:21:21;14.00;;;9.15;;
44704;SDS011;30431;48.520;9.046;2023-01-08T07:23:49;15.07;;;9.40;;
44704;SDS011;30431;48.520;9.046;2023-01-08T07:26:18;14.23;;;9.82;;
44704;SDS011;30431;48.520;9.046;2023-01-08T07:28:48;13.93;;;9.82;;
44704;SDS011;30431;48.520;9.046;2023-01-08T07:31:20;14.52;;;9.68;;
44704;SDS011;30431;48.520;9.046;2023-01-08T07:33:47;14.45;;;9.98;;
44704;SDS011;30431;48.520;9.046;2023-01-08T07:36:15;14.27;;;9.52;;
44704;SDS011;30431;48.520;9.046;2023-01-08T07:38:44;12.60;;;9.18;;
44704;SDS011;30431;48.520;9.046;2023-01-08T07:41:11;13.40;;;8.70;;
44704;SDS011;30431;48.520;9.046;2023-01-08T07:43:38;12.38;;;8.13;;
44704;SDS011;30431;48.520;9.046;2023-01-08T07:46:05;15.02;;;9.68;;
44704;SDS011;30431;48.520;9.046;2023-01-08T07:48:32;10.43;;;7.68;;
44704;SDS011;30431;48.520;9.046;2023-01-08T07:51:00;10.35;;;6.75;;
44704;SDS011;30431;48.520;9.046;2023-01-08T07:53:28;10.38;;;7.13;;
44704;SDS011;30431;48.520;9.046;2023-01-08T07:55:59;9.02;;;6.13;;
44704;SDS011;30431;48.520;9.046;2023-01-08T07:58:30;7.55;;;6.05;;
44704;SDS011;30431;48.520;9.046;2023-01-08T08:00:58;7.93;;;5.18;;
44704;SDS011;30431;48.520;9.046;2023-01-08T08:03:28;5.63;;;3.78;;
44704;SDS011;30431;48.520;9.046;2023-01-08T08:05:55;6.03;;;3.90;;
44704;SDS011;30431;48.520;9.046;2023-01-08T08:08:22;7.80;;;4.10;;
44704;SDS011;30431;48.520;9.046;2023-01-08T08:10:49;5.53;;;4.00;;
44704;SDS011;30431;48.520;9.046;2023-01-08T08:13:17;6.30;;;4.00;;
44704;SDS011;30431;48.520;9.046;2023-01-08T08:15:44;4.85;;;3.28;;
44704;SDS011;30431;48.520;9.046;2023-01-08T08:18:11;7.43;;;3.80;;
44704;SDS011;30431;48.520;9.046;2023-01-08T08:20:38;9.13;;;4.68;;
44704;SDS011;30431;48.520;9.046;2023-01-08T08:23:06;6.85;;;4.50;;
44704;SDS011;30431;48.520;9.046;2023-01-08T08:25:35;6.10;;;4.22;;
44704;SDS011;30431;48.520;9.046;2023-01-08T08:28:02;7.75;;;5.03;;
44704;SDS011;30431;48.520;9.046;2023-01-08T08:30:30;8.02;;;4.93;;
44704;SDS011;30431;48.520;9.046;2023-01-08T08:33:02;10.02;;;5.68;;
44704;SDS011;30431;48.520;9.046;2023-01-08T08:35:33;10.90;;;5.97;;
44704;SDS011;30431;48.520;9.046;2023-01-08T08:38:05;12.48;;;6.93;;
44704;SDS011;30431;48.520;9.046;2023-01-08T08:40:35;12.88;;;7.55;;
44704;SDS011;30431;48.520;9.046;2023-01-08T08:43:02;10.95;;;6.75;;
44704;SDS011;30431;48.520;9.046;2023-01-08T08:45:30;11.48;;;7.10;;
44704;SDS011;30431;48.520;9.046;2023-01-08T08:47:57;11.60;;;6.57;;
44704;SDS011;30431;48.520;9.046;2023-01-08T08:50:26;8.57;;;5.13;;
44704;SDS011;30431;48.520;9.046;2023-01-08T08:52:57;5.97;;;4.18;;
44704;SDS011;30431;48.520;9.046;2023-01-08T08:55:30;12.55;;;7.43;;
44704;SDS011;30431;48.520;9.046;2023-01-08T08:58:05;28.10;;;15.85;;
44704;SDS011;30431;48.520;9.046;2023-01-08T09:00:40;23.02;;;12.77;;
44704;SDS011;30431;48.520;9.046;2023-01-08T09:03:10;18.65;;;11.13;;
44704;SDS011;30431;48.520;9.046;2023-01-08T09:05:41;13.77;;;8.10;;
44704;SDS011;30431;48.520;9.046;2023-01-08T09:08:11;12.30;;;7.78;;
44704;SDS011;30431;48.520;9.046;2023-01-08T09:10:39;13.23;;;8.23;;
44704;SDS011;30431;48.520;9.046;2023-01-08T09:13:07;11.98;;;7.25;;
44704;SDS011;30431;48.520;9.046;2023-01-08T09:15:38;13.05;;;7.35;;
44704;SDS011;30431;48.520;9.046;2023-01-08T09:18:08;7.47;;;5.30;;
44704;SDS011;30431;48.520;9.046;2023-01-08T09:20:35;6.18;;;4.43;;
44704;SDS011;30431;48.520;9.046;2023-01-08T09:23:05;5.85;;;4.35;;
44704;SDS011;30431;48.520;9.046;2023-01-08T09:27:59;6.93;;;3.42;;
44704;SDS011;30431;48.520;9.046;2023-01-08T09:30:30;5.07;;;3.42;;
44704;SDS011;30431;48.520;9.046;2023-01-08T09:32:58;4.45;;;2.70;;
44704;SDS011;30431;48.520;9.046;2023-01-08T09:35:28;6.10;;;2.90;;
44704;SDS011;30431;48.520;9.046;2023-01-08T09:37:59;4.10;;;2.50;;
44704;SDS011;30431;48.520;9.046;2023-01-08T09:40:34;6.35;;;2.92;;
44704;SDS011;30431;48.520;9.046;2023-01-08T09:43:23;4.43;;;2.67;;
44704;SDS011;30431;48.520;9.046;2023-01-08T09:45:54;4.43;;;2.47;;
44704;SDS011;30431;48.520;9.046;2023-01-08T09:48:27;5.40;;;3.38;;
44704;SDS011;30431;48.520;9.046;2023-01-08T09:51:03;5.55;;;2.90;;
44704;SDS011;30431;48.520;9.046;2023-01-08T09:53:39;5.13;;;3.70;;
44704;SDS011;30431;48.520;9.046;2023-01-08T09:56:15;4.00;;;2.72;;
44704;SDS011;30431;48.520;9.046;2023-01-08T09:59:04;3.05;;;1.90;;
44704;SDS011;30431;48.520;9.046;2023-01-08T10:01:34;5.95;;;3.50;;
44704;SDS011;30431;48.520;9.046;2023-01-08T10:04:17;4.00;;;2.35;;
44704;SDS011;30431;48.520;9.046;2023-01-08T10:06:53;3.75;;;2.30;;
44704;SDS011;30431;48.520;9.046;2023-01-08T10:09:33;3.60;;;2.25;;
44704;SDS011;30431;48.520;9.046;2023-01-08T10:12:01;3.17;;;1.70;;
44704;SDS011;30431;48.520;9.046;2023-01-08T10:14:31;2.92;;;1.88;;
44704;SDS011;30431;48.520;9.046;2023-01-08T10:17:24;2.22;;;1.65;;
44704;SDS011;30431;48.520;9.046;2023-01-08T10:20:16;2.65;;;1.60;;
44704;SDS011;30431;48.520;9.046;2023-01-08T10:22:45;2.90;;;1.98;;
44704;SDS011;30431;48.520;9.046;2023-01-08T10:25:19;3.55;;;2.10;;
44704;SDS011;30431;48.520;9.046;2023-01-08T10:30:32;2.88;;;2.10;;
44704;SDS011;30431;48.520;9.046;2023-01-08T10:33:12;3.17;;;1.92;;
44704;SDS011;30431;48.520;9.046;2023-01-08T10:35:50;2.80;;;1.83;;
44704;SDS011;30431;48.520;9.046;2023-01-08T10:41:30;3.97;;;2.70;;
44704;SDS011;30431;48.520;9.046;2023-01-08T10:44:04;3.33;;;2.00;;
44704;SDS011;30431;48.520;9.046;2023-01-08T10:46:42;4.63;;;2.25;;
44704;SDS011;30431;48.520;9.046;2023-01-08T10:49:17;3.33;;;1.80;;
44704;SDS011;30431;48.520;9.046;2023-01-08T10:51:47;2.50;;;1.75;;
44704;SDS011;30431;48.520;9.046;2023-01-08T10:54:27;2.85;;;2.00;;
44704;SDS011;30431;48.520;9.046;2023-01-08T10:57:16;1.60;;;1.50;;
44704;SDS011;30431;48.520;9.046;2023-01-08T10:59:47;2.90;;;2.13;;
44704;SDS011;30431;48.520;9.046;2023-01-08T11:02:21;2.20;;;1.90;;
44704;SDS011;30431;48.520;9.046;2023-01-08T11:04:58;1.80;;;1.70;;
44704;SDS011;30431;48.520;9.046;2023-01-08T11:07:26;2.80;;;1.80;;
44704;SDS011;30431;48.520;9.046;2023-01-08T11:09:54;3.28;;;1.70;;
44704;SDS011;30431;48.520;9.046;2023-01-08T11:12:55;1.88;;;1.67;;
44704;SDS011;30431;48.520;9.046;2023-01-08T11:17:48;2.00;;;1.65;;
44704;SDS011;30431;48.520;9.046;2023-01-08T11:20:20;2.63;;;1.88;;
44704;SDS011;30431;48.520;9.046;2023-01-08T11:23:12;2.80;;;2.05;;
44704;SDS011;30431;48.520;9.046;2023-01-08T11:28:32;1.40;;;1.30;;
44704;SDS011;30431;48.520;9.046;2023-01-08T11:31:16;2.58;;;1.88;;
44704;SDS011;30431;48.520;9.046;2023-01-08T11:33:51;4.32;;;2.08;;
44704;SDS011;30431;48.520;9.046;2023-01-08T11:36:29;2.65;;;1.70;;
44704;SDS011;30431;48.520;9.046;2023-01-08T11:39:00;4.03;;;1.90;;
44704;SDS011;30431;48.520;9.046;2023-01-08T11:41:31;3.50;;;1.40;;
44704;SDS011;30431;48.520;9.046;2023-01-08T11:44:34;1.73;;;1.38;;
44704;SDS011;30431;48.520;9.046;2023-01-08T11:50:08;1.40;;;1.30;;
44704;SDS011;30431;48.520;9.046;2023-01-08T12:00:45;2.05;;;1.48;;
44704;SDS011;30431;48.520;9.046;2023-01-08T12:04:03;1.63;;;1.50;;
44704;SDS011;30431;48.520;9.046;2023-01-08T12:12:58;2.17;;;1.80;;
44704;SDS011;30431;48.520;9.046;2023-01-08T12:15:43;1.70;;;1.60;;
44704;SDS011;30431;48.520;9.046;2023-01-08T12:18:18;3.47;;;1.65;;
44704;SDS011;30431;48.520;9.046;2023-01-08T12:21:13;2.38;;;1.60;;
44704;SDS011;30431;48.520;9.046;2023-01-08T12:32:41;1.98;;;1.73;;
44704;SDS011;30431;48.520;9.046;2023-01-08T12:42:50;1.88;;;1.58;;
44704;SDS011;30431;48.520;9.046;2023-01-08T12:45:29;2.50;;;1.70;;
44704;SDS011;30431;48.520;9.046;2023-01-08T12:48:36;1.40;;;1.30;;
44704;SDS011;30431;48.520;9.046;2023-01-08T12:56:59;2.90;;;2.20;;
44704;SDS011;30431;48.520;9.046;2023-01-08T13:07:48;3.88;;;2.50;;
44704;SDS011;30431;48.520;9.046;2023-01-08T13:13:01;4.38;;;3.08;;
44704;SDS011;30431;48.520;9.046;2023-01-08T13:15:35;5.18;;;2.55;;
44704;SDS011;30431;48.520;9.046;2023-01-08T13:18:14;3.33;;;2.30;;
44704;SDS011;30431;48.520;9.046;2023-01-08T13:20:56;2.85;;;2.05;;
44704;SDS011;30431;48.520;9.046;2023-01-08T13:23:26;2.47;;;1.95;;
44704;SDS011;30431;48.520;9.046;2023-01-08T13:25:55;2.80;;;1.92;;
44704;SDS011;30431;48.520;9.046;2023-01-08T13:28:27;2.85;;;2.03;;
44704;SDS011;30431;48.520;9.046;2023-01-08T13:33:50;3.25;;;2.20;;
44704;SDS011;30431;48.520;9.046;2023-01-08T13:41:29;4.80;;;3.10;;
44704;SDS011;30431;48.520;9.046;2023-01-08T13:46:32;4.60;;;3.13;;
44704;SDS011;30431;48.520;9.046;2023-01-08T13:49:05;3.95;;;2.17;;
44704;SDS011;30431;48.520;9.046;2023-01-08T13:51:40;2.92;;;1.98;;
44704;SDS011;30431;48.520;9.046;2023-01-08T13:56:43;1.75;;;1.58;;
44704;SDS011;30431;48.520;9.046;2023-01-08T13:59:29;3.28;;;2.30;;
44704;SDS011;30431;48.520;9.046;2023-01-08T14:02:16;4.88;;;2.75;;
44704;SDS011;30431;48.520;9.046;2023-01-08T14:04:58;2.05;;;1.63;;
44704;SDS011;30431;48.520;9.046;2023-01-08T14:07:26;3.67;;;1.80;;
44704;SDS011;30431;48.520;9.046;2023-01-08T14:10:05;2.28;;;1.75;;
44704;SDS011;30431;48.520;9.046;2023-01-08T14:12:34;1.85;;;1.67;;
44704;SDS011;30431;48.520;9.046;2023-01-08T14:15:06;1.45;;;1.35;;
44704;SDS011;30431;48.520;9.046;2023-01-08T14:17:41;1.92;;;1.40;;
44704;SDS011;30431;48.520;9.046;2023-01-08T14:20:09;2.65;;;1.73;;
44704;SDS011;30431;48.520;9.046;2023-01-08T14:22:40;1.95;;;1.38;;
44704;SDS011;30431;48.520;9.046;2023-01-08T14:27:40;2.58;;;1.77;;
44704;SDS011;30431;48.520;9.046;2023-01-08T14:30:14;2.40;;;1.60;;
44704;SDS011;30431;48.520;9.046;2023-01-08T14:32:42;3.03;;;1.90;;
44704;SDS011;30431;48.520;9.046;2023-01-08T14:35:13;3.60;;;1.70;;
44704;SDS011;30431;48.520;9.046;2023-01-08T14:37:46;3.33;;;2.00;;
44704;SDS011;30431;48.520;9.046;2023-01-08T14:40:23;5.07;;;2.78;;
44704;SDS011;30431;48.520;9.046;2023-01-08T14:42:57;3.22;;;2.10;;
44704;SDS011;30431;48.520;9.046;2023-01-08T14:45:28;5.07;;;2.50;;
44704;SDS011;30431;48.520;9.046;2023-01-08T14:48:23;3.47;;;2.40;;
44704;SDS011;30431;48.520;9.046;2023-01-08T14:53:34;3.90;;;2.10;;
44704;SDS011;30431;48.520;9.046;2023-01-08T14:56:03;3.25;;;2.00;;
44704;SDS011;30431;48.520;9.046;2023-01-08T14:58:36;3.03;;;2.00;;
44704;SDS011;30431;48.520;9.046;2023-01-08T15:01:12;3.80;;;1.70;;
44704;SDS011;30431;48.520;9.046;2023-01-08T15:03:46;2.50;;;1.90;;
44704;SDS011;30431;48.520;9.046;2023-01-08T15:06:26;2.90;;;1.88;;
44704;SDS011;30431;48.520;9.046;2023-01-08T15:09:12;2.28;;;1.75;;
44704;SDS011;30431;48.520;9.046;2023-01-08T15:11:52;4.00;;;2.55;;
44704;SDS011;30431;48.520;9.046;2023-01-08T15:14:25;4.97;;;3.58;;
44704;SDS011;30431;48.520;9.046;2023-01-08T15:16:57;12.65;;;8.13;;
44704;SDS011;30431;48.520;9.046;2023-01-08T15:19:30;6.85;;;5.47;;
44704;SDS011;30431;48.520;9.046;2023-01-08T15:22:08;6.70;;;4.47;;
44704;SDS011;30431;48.520;9.046;2023-01-08T15:24:41;7.30;;;4.43;;
44704;SDS011;30431;48.520;9.046;2023-01-08T15:27:16;4.85;;;3.08;;
44704;SDS011;30431;48.520;9.046;2023-01-08T15:29:51;7.75;;;3.45;;
44704;SDS011;30431;48.520;9.046;2023-01-08T15:32:28;4.93;;;3.15;;
44704;SDS011;30431;48.520;9.046;2023-01-08T15:34:57;4.65;;;2.75;;
44704;SDS011;30431;48.520;9.046;2023-01-08T15:37:27;4.55;;;2.80;;
44704;SDS011;30431;48.520;9.046;2023-01-08T15:39:58;7.93;;;4.20;;
44704;SDS011;30431;48.520;9.046;2023-01-08T15:45:16;9.18;;;4.45;;
44704;SDS011;30431;48.520;9.046;2023-01-08T15:47:45;6.28;;;3.50;;
44704;SDS011;30431;48.520;9.046;2023-01-08T15:50:14;7.43;;;4.82;;
44704;SDS011;30431;48.520;9.046;2023-01-08T15:52:44;8.63;;;4.60;;
44704;SDS011;30431;48.520;9.046;2023-01-08T15:55:16;6.40;;;3.17;;
44704;SDS011;30431;48.520;9.046;2023-01-08T15:57:48;4.25;;;3.05;;
44704;SDS011;30431;48.520;9.046;2023-01-08T16:00:16;8.30;;;3.28;;
44704;SDS011;30431;48.520;9.046;2023-01-08T16:02:45;8.68;;;3.92;;
44704;SDS011;30431;48.520;9.046;2023-01-08T16:05:14;9.98;;;5.03;;
44704;SDS011;30431;48.520;9.046;2023-01-08T16:07:52;6.75;;;3.55;;
44704;SDS011;30431;48.520;9.046;2023-01-08T16:10:19;10.30;;;4.65;;
44704;SDS011;30431;48.520;9.046;2023-01-08T16:12:54;17.77;;;12.40;;
44704;SDS011;30431;48.520;9.046;2023-01-08T16:15:21;12.52;;;8.23;;
44704;SDS011;30431;48.520;9.046;2023-01-08T16:17:49;11.05;;;6.90;;
44704;SDS011;30431;48.520;9.046;2023-01-08T16:22:46;9.10;;;5.75;;
44704;SDS011;30431;48.520;9.046;2023-01-08T16:25:17;12.75;;;6.68;;
44704;SDS011;30431;48.520;9.046;2023-01-08T16:27:47;8.80;;;6.25;;
44704;SDS011;30431;48.520;9.046;2023-01-08T16:30:16;9.18;;;6.35;;
44704;SDS011;30431;48.520;9.046;2023-01-08T16:32:53;11.60;;;7.70;;
44704;SDS011;30431;48.520;9.046;2023-01-08T16:35:20;9.50;;;7.00;;
44704;SDS011;30431;48.520;9.046;2023-01-08T16:37:47;10.57;;;7.20;;
44704;SDS011;30431;48.520;9.046;2023-01-08T16:40:14;15.27;;;6.85;;
44704;SDS011;30431;48.520;9.046;2023-01-08T16:42:41;17.90;;;12.25;;
44704;SDS011;30431;48.520;9.046;2023-01-08T16:45:09;18.05;;;10.63;;
44704;SDS011;30431;48.520;9.046;2023-01-08T16:47:38;14.70;;;9.40;;
44704;SDS011;30431;48.520;9.046;2023-01-08T16:50:05;14.95;;;9.00;;
44704;SDS011;30431;48.520;9.046;2023-01-08T16:52:33;12.43;;;8.68;;
44704;SDS011;30431;48.520;9.046;2023-01-08T16:55:07;13.50;;;7.60;;
44704;SDS011;30431;48.520;9.046;2023-01-08T16:57:42;10.68;;;6.78;;
44704;SDS011;30431;48.520;9.046;2023-01-08T17:00:09;8.35;;;4.82;;
44704;SDS011;30431;48.520;9.046;2023-01-08T17:02:37;8.40;;;5.28;;
44704;SDS011;30431;48.520;9.046;2023-01-08T17:05:08;11.70;;;5.35;;
44704;SDS011;30431;48.520;9.046;2023-01-08T17:07:35;13.50;;;8.48;;
44704;SDS011;30431;48.520;9.046;2023-01-08T17:10:04;8.43;;;5.40;;
44704;SDS011;30431;48.520;9.046;2023-01-08T17:12:32;9.00;;;5.90;;
44704;SDS011;30431;48.520;9.046;2023-01-08T17:15:01;8.52;;;5.53;;
44704;SDS011;30431;48.520;9.046;2023-01-08T17:17:28;12.07;;;5.35;;
44704;SDS011;30431;48.520;9.046;2023-01-08T17:19:55;11.50;;;6.50;;
44704;SDS011;30431;48.520;9.046;2023-01-08T17:22:24;11.23;;;7.40;;